sensor_id;sensor_type;location;lat;lon;timestamp;pressure;altitude;pressure_sealevel;temperature;humidity
65756;BME280;52489;47.502;18.940;2023-03-20T00:00:58;98111.50;;;9.77;47.78
65756;BME280;52489;47.502;18.940;2023-03-20T00:02:01;98113.22;;;9.82;47.22
65756;BME280;52489;47.502;18.940;2023-03-20T00:03:04;98105.47;;;9.76;47.30
65756;BME280;52489;47.502;18.940;2023-03-20T00:04:09;98110.59;;;9.68;47.84
65756;BME280;52489;47.502;18.940;2023-03-20T00:05:20;98112.50;;;9.62;47.67
65756;BME280;52489;47.502;18.940;2023-03-20T00:06:26;98109.78;;;9.53;47.95
65756;BME280;52489;47.502;18.940;2023-03-20T00:07:30;98118.97;;;9.51;48.21
65756;BME280;52489;47.502;18.940;2023-03-20T00:08:33;98110.91;;;9.47;48.47
65756;BME280;52489;47.502;18.940;2023-03-20T00:09:38;98117.19;;;9.46;48.46
65756;BME280;52489;47.502;18.940;2023-03-20T00:10:43;98116.22;;;9.42;48.63
65756;BME280;52489;47.502;18.940;2023-03-20T00:11:51;98114.09;;;9.44;48.81
65756;BME280;52489;47.502;18.940;2023-03-20T00:12:55;98111.28;;;9.41;49.11
65756;BME280;52489;47.502;18.940;2023-03-20T00:15:05;98108.88;;;9.44;48.77
65756;BME280;52489;47.502;18.940;2023-03-20T00:16:10;98100.25;;;9.25;49.59
65756;BME280;52489;47.502;18.940;2023-03-20T00:17:18;98106.34;;;9.20;49.68
65756;BME280;52489;47.502;18.940;2023-03-20T00:18:22;98105.00;;;9.23;49.60
65756;BME280;52489;47.502;18.940;2023-03-20T00:19:28;98105.16;;;9.13;50.12
65756;BME280;52489;47.502;18.940;2023-03-20T00:20:31;98108.84;;;9.11;50.54
65756;BME280;52489;47.502;18.940;2023-03-20T00:21:34;98113.28;;;9.11;50.36
65756;BME280;52489;47.502;18.940;2023-03-20T00:22:37;98116.38;;;9.13;50.47
65756;BME280;52489;47.502;18.940;2023-03-20T00:23:40;98109.97;;;9.05;50.97
65756;BME280;52489;47.502;18.940;2023-03-20T00:24:44;98112.34;;;9.02;50.95
65756;BME280;52489;47.502;18.940;2023-03-20T00:25:47;98115.19;;;9.05;51.04
65756;BME280;52489;47.502;18.940;2023-03-20T00:26:51;98114.19;;;9.01;50.72
65756;BME280;52489;47.502;18.940;2023-03-20T00:27:54;98116.66;;;9.11;50.66
65756;BME280;52489;47.502;18.940;2023-03-20T00:28:57;98112.56;;;9.05;50.87
65756;BME280;52489;47.502;18.940;2023-03-20T00:30:01;98117.84;;;9.19;50.13
65756;BME280;52489;47.502;18.940;2023-03-20T00:31:27;98116.94;;;9.29;49.51
65756;BME280;52489;47.502;18.940;2023-03-20T00:32:29;98101.41;;;9.19;50.04
65756;BME280;52489;47.502;18.940;2023-03-20T00:33:32;98104.00;;;9.19;49.96
65756;BME280;52489;47.502;18.940;2023-03-20T00:34:35;98112.28;;;9.07;50.03
65756;BME280;52489;47.502;18.940;2023-03-20T00:35:38;98109.47;;;9.03;50.05
65756;BME280;52489;47.502;18.940;2023-03-20T00:36:41;98103.53;;;8.98;50.29
65756;BME280;52489;47.502;18.940;2023-03-20T00:37:44;98098.25;;;9.03;49.62
65756;BME280;52489;47.502;18.940;2023-03-20T00:38:47;98101.00;;;9.11;49.84
65756;BME280;52489;47.502;18.940;2023-03-20T00:39:50;98112.47;;;9.10;50.21
65756;BME280;52489;47.502;18.940;2023-03-20T00:40:53;98109.47;;;9.03;50.24
65756;BME280;52489;47.502;18.940;2023-03-20T00:42:01;98112.41;;;9.16;49.80
65756;BME280;52489;47.502;18.940;2023-03-20T00:43:05;98109.88;;;9.10;50.18
65756;BME280;52489;47.502;18.940;2023-03-20T00:45:24;98114.62;;;9.08;49.96
65756;BME280;52489;47.502;18.940;2023-03-20T00:46:31;98118.84;;;9.04;50.11
65756;BME280;52489;47.502;18.940;2023-03-20T00:47:37;98105.38;;;8.97;50.40
65756;BME280;52489;47.502;18.940;2023-03-20T00:48:43;98114.34;;;8.91;51.13
65756;BME280;52489;47.502;18.940;2023-03-20T00:49:48;98110.09;;;8.95;51.33
65756;BME280;52489;47.502;18.940;2023-03-20T00:50:52;98115.09;;;8.92;50.75
65756;BME280;52489;47.502;18.940;2023-03-20T00:51:56;98113.97;;;8.98;50.87
65756;BME280;52489;47.502;18.940;2023-03-20T00:52:59;98107.28;;;8.92;50.86
65756;BME280;52489;47.502;18.940;2023-03-20T00:54:12;98107.84;;;8.88;51.35
65756;BME280;52489;47.502;18.940;2023-03-20T00:55:17;98103.69;;;8.87;51.35
65756;BME280;52489;47.502;18.940;2023-03-20T00:56:31;98113.06;;;8.88;51.82
65756;BME280;52489;47.502;18.940;2023-03-20T00:57:42;98117.97;;;8.71;52.50
65756;BME280;52489;47.502;18.940;2023-03-20T00:58:46;98112.81;;;8.66;52.09
65756;BME280;52489;47.502;18.940;2023-03-20T00:59:57;98120.06;;;8.69;52.43
65756;BME280;52489;47.502;18.940;2023-03-20T01:01:01;98114.59;;;8.71;52.95
65756;BME280;52489;47.502;18.940;2023-03-20T01:02:04;98117.03;;;8.62;52.40
65756;BME280;52489;47.502;18.940;2023-03-20T01:03:23;98115.34;;;8.52;52.70
65756;BME280;52489;47.502;18.940;2023-03-20T01:04:34;98114.12;;;8.63;52.67
65756;BME280;52489;47.502;18.940;2023-03-20T01:05:38;98112.59;;;8.62;52.32
65756;BME280;52489;47.502;18.940;2023-03-20T01:06:42;98122.62;;;8.55;52.45
65756;BME280;52489;47.502;18.940;2023-03-20T01:07:45;98111.16;;;8.51;52.49
65756;BME280;52489;47.502;18.940;2023-03-20T01:08:48;98118.66;;;8.58;52.72
65756;BME280;52489;47.502;18.940;2023-03-20T01:09:52;98110.94;;;8.48;54.00
65756;BME280;52489;47.502;18.940;2023-03-20T01:10:57;98108.28;;;8.53;53.93
65756;BME280;52489;47.502;18.940;2023-03-20T01:12:01;98115.00;;;8.59;53.13
65756;BME280;52489;47.502;18.940;2023-03-20T01:13:08;98111.22;;;8.46;53.67
65756;BME280;52489;47.502;18.940;2023-03-20T01:14:15;98111.44;;;8.50;53.54
65756;BME280;52489;47.502;18.940;2023-03-20T01:15:24;98116.44;;;8.46;53.68
65756;BME280;52489;47.502;18.940;2023-03-20T01:16:27;98110.22;;;8.37;53.82
65756;BME280;52489;47.502;18.940;2023-03-20T01:17:30;98110.56;;;8.30;53.94
65756;BME280;52489;47.502;18.940;2023-03-20T01:18:33;98112.72;;;8.28;53.58
65756;BME280;52489;47.502;18.940;2023-03-20T01:19:37;98104.69;;;8.19;54.70
65756;BME280;52489;47.502;18.940;2023-03-20T01:20:40;98106.69;;;8.28;53.97
65756;BME280;52489;47.502;18.940;2023-03-20T01:21:44;98108.31;;;8.24;53.97
65756;BME280;52489;47.502;18.940;2023-03-20T01:22:47;98105.97;;;8.22;54.03
65756;BME280;52489;47.502;18.940;2023-03-20T01:23:51;98104.16;;;8.23;54.17
65756;BME280;52489;47.502;18.940;2023-03-20T01:24:53;98099.09;;;8.31;53.19
65756;BME280;52489;47.502;18.940;2023-03-20T01:25:56;98095.44;;;8.32;53.15
65756;BME280;52489;47.502;18.940;2023-03-20T01:27:00;98098.28;;;8.31;53.29
65756;BME280;52489;47.502;18.940;2023-03-20T01:28:18;98097.19;;;8.37;53.39
65756;BME280;52489;47.502;18.940;2023-03-20T01:29:24;98092.25;;;8.40;52.96
65756;BME280;52489;47.502;18.940;2023-03-20T01:30:31;98092.88;;;8.27;54.28
65756;BME280;52489;47.502;18.940;2023-03-20T01:31:35;98091.19;;;8.36;53.19
65756;BME280;52489;47.502;18.940;2023-03-20T01:32:39;98089.34;;;8.37;53.16
65756;BME280;52489;47.502;18.940;2023-03-20T01:33:42;98092.25;;;8.35;53.62
65756;BME280;52489;47.502;18.940;2023-03-20T01:34:45;98085.25;;;8.31;54.38
65756;BME280;52489;47.502;18.940;2023-03-20T01:35:49;98085.31;;;8.26;54.13
65756;BME280;52489;47.502;18.940;2023-03-20T01:36:55;98088.66;;;8.31;53.96
65756;BME280;52489;47.502;18.940;2023-03-20T01:37:59;98080.31;;;8.53;52.57
65756;BME280;52489;47.502;18.940;2023-03-20T01:39:03;98081.09;;;8.54;52.46
65756;BME280;52489;47.502;18.940;2023-03-20T01:41:23;98090.16;;;8.61;52.20
65756;BME280;52489;47.502;18.940;2023-03-20T01:42:26;98079.50;;;8.58;52.03
65756;BME280;52489;47.502;18.940;2023-03-20T01:43:32;98074.41;;;8.66;52.48
65756;BME280;52489;47.502;18.940;2023-03-20T01:44:35;98075.41;;;8.71;52.24
65756;BME280;52489;47.502;18.940;2023-03-20T01:46:55;98072.31;;;8.87;51.41
65756;BME280;52489;47.502;18.940;2023-03-20T01:47:58;98076.53;;;8.83;51.57
65756;BME280;52489;47.502;18.940;2023-03-20T01:50:32;98083.09;;;8.81;51.78
65756;BME280;52489;47.502;18.940;2023-03-20T01:51:35;98076.84;;;8.82;51.45
65756;BME280;52489;47.502;18.940;2023-03-20T01:52:39;98081.06;;;8.97;51.49
65756;BME280;52489;47.502;18.940;2023-03-20T01:53:43;98083.53;;;8.88;52.19
65756;BME280;52489;47.502;18.940;2023-03-20T01:54:47;98090.88;;;8.67;53.18
65756;BME280;52489;47.502;18.940;2023-03-20T01:55:52;98085.56;;;8.72;53.01
65756;BME280;52489;47.502;18.940;2023-03-20T01:58:07;98088.00;;;8.87;53.09
65756;BME280;52489;47.502;18.940;2023-03-20T01:59:17;98087.06;;;8.78;53.06
65756;BME280;52489;47.502;18.940;2023-03-20T02:00:23;98083.41;;;8.79;52.94
65756;BME280;52489;47.502;18.940;2023-03-20T02:01:26;98081.63;;;8.75;52.51
65756;BME280;52489;47.502;18.940;2023-03-20T02:02:31;98089.53;;;8.70;52.84
65756;BME280;52489;47.502;18.940;2023-03-20T02:03:34;98083.38;;;8.60;52.74
65756;BME280;52489;47.502;18.940;2023-03-20T02:04:40;98071.38;;;8.59;52.84
65756;BME280;52489;47.502;18.940;2023-03-20T02:05:45;98065.09;;;8.60;52.74
65756;BME280;52489;47.502;18.940;2023-03-20T02:06:49;98073.22;;;8.59;52.87
65756;BME280;52489;47.502;18.940;2023-03-20T02:08:04;98075.91;;;8.73;52.26
65756;BME280;52489;47.502;18.940;2023-03-20T02:09:10;98079.94;;;8.65;53.20
65756;BME280;52489;47.502;18.940;2023-03-20T02:10:14;98083.16;;;8.57;53.37
65756;BME280;52489;47.502;18.940;2023-03-20T02:11:20;98082.84;;;8.39;54.59
65756;BME280;52489;47.502;18.940;2023-03-20T02:12:25;98080.87;;;8.50;53.99
65756;BME280;52489;47.502;18.940;2023-03-20T02:13:30;98080.47;;;8.43;54.46
65756;BME280;52489;47.502;18.940;2023-03-20T02:14:35;98083.84;;;8.43;54.59
65756;BME280;52489;47.502;18.940;2023-03-20T02:16:58;98082.56;;;8.41;54.54
65756;BME280;52489;47.502;18.940;2023-03-20T02:18:02;98071.63;;;8.39;54.93
65756;BME280;52489;47.502;18.940;2023-03-20T02:19:07;98085.91;;;8.47;55.07
65756;BME280;52489;47.502;18.940;2023-03-20T02:24:32;98083.91;;;8.38;54.34
65756;BME280;52489;47.502;18.940;2023-03-20T02:29:52;98064.16;;;8.27;55.51
65756;BME280;52489;47.502;18.940;2023-03-20T02:31:23;98068.38;;;8.23;55.35
65756;BME280;52489;47.502;18.940;2023-03-20T02:39:41;98064.50;;;7.96;56.24
65756;BME280;52489;47.502;18.940;2023-03-20T02:44:10;98055.94;;;7.91;56.74
65756;BME280;52489;47.502;18.940;2023-03-20T02:45:28;98057.56;;;7.87;56.60
65756;BME280;52489;47.502;18.940;2023-03-20T02:46:39;98060.66;;;7.89;56.40
65756;BME280;52489;47.502;18.940;2023-03-20T02:48:54;98047.44;;;7.80;56.64
65756;BME280;52489;47.502;18.940;2023-03-20T02:51:36;98048.41;;;7.60;57.58
65756;BME280;52489;47.502;18.940;2023-03-20T02:53:33;98054.31;;;7.71;57.16
65756;BME280;52489;47.502;18.940;2023-03-20T02:54:27;98046.03;;;7.64;57.12
65756;BME280;52489;47.502;18.940;2023-03-20T02:55:43;98049.44;;;7.59;57.24
65756;BME280;52489;47.502;18.940;2023-03-20T02:58:12;98050.00;;;7.56;57.71
65756;BME280;52489;47.502;18.940;2023-03-20T03:01:02;98045.50;;;7.67;57.57
65756;BME280;52489;47.502;18.940;2023-03-20T03:02:20;98048.34;;;7.36;58.87
65756;BME280;52489;47.502;18.940;2023-03-20T03:03:34;98049.72;;;7.28;59.33
65756;BME280;52489;47.502;18.940;2023-03-20T03:04:53;98051.22;;;7.35;58.97
65756;BME280;52489;47.502;18.940;2023-03-20T03:06:10;98061.38;;;7.36;59.04
65756;BME280;52489;47.502;18.940;2023-03-20T03:07:15;98060.69;;;7.25;59.24
65756;BME280;52489;47.502;18.940;2023-03-20T03:08:24;98060.28;;;7.42;58.72
65756;BME280;52489;47.502;18.940;2023-03-20T03:09:35;98056.91;;;7.42;58.21
65756;BME280;52489;47.502;18.940;2023-03-20T03:10:44;98056.09;;;7.46;58.11
65756;BME280;52489;47.502;18.940;2023-03-20T03:11:54;98052.47;;;7.42;58.33
65756;BME280;52489;47.502;18.940;2023-03-20T03:12:59;98057.75;;;7.32;58.27
65756;BME280;52489;47.502;18.940;2023-03-20T03:14:04;98054.69;;;7.25;58.72
65756;BME280;52489;47.502;18.940;2023-03-20T03:15:26;98056.87;;;7.47;58.74
65756;BME280;52489;47.502;18.940;2023-03-20T03:16:33;98060.16;;;7.23;59.25
65756;BME280;52489;47.502;18.940;2023-03-20T03:17:38;98051.06;;;7.21;59.28
65756;BME280;52489;47.502;18.940;2023-03-20T03:18:45;98052.88;;;7.25;59.09
65756;BME280;52489;47.502;18.940;2023-03-20T03:19:54;98057.78;;;7.27;58.93
65756;BME280;52489;47.502;18.940;2023-03-20T03:21:02;98055.53;;;7.15;59.07
65756;BME280;52489;47.502;18.940;2023-03-20T03:22:07;98062.38;;;7.06;59.41
65756;BME280;52489;47.502;18.940;2023-03-20T03:24:35;98062.47;;;6.91;60.09
65756;BME280;52489;47.502;18.940;2023-03-20T03:25:43;98062.69;;;6.99;60.11
65756;BME280;52489;47.502;18.940;2023-03-20T03:26:47;98064.53;;;6.94;60.03
65756;BME280;52489;47.502;18.940;2023-03-20T03:28:02;98067.66;;;6.96;59.89
65756;BME280;52489;47.502;18.940;2023-03-20T03:29:13;98064.31;;;6.85;60.30
65756;BME280;52489;47.502;18.940;2023-03-20T03:30:24;98061.41;;;6.97;59.68
65756;BME280;52489;47.502;18.940;2023-03-20T03:31:30;98068.19;;;6.93;59.94
65756;BME280;52489;47.502;18.940;2023-03-20T03:32:40;98063.00;;;6.93;59.88
65756;BME280;52489;47.502;18.940;2023-03-20T03:33:45;98066.13;;;6.90;60.24
65756;BME280;52489;47.502;18.940;2023-03-20T03:34:49;98068.78;;;6.79;60.56
65756;BME280;52489;47.502;18.940;2023-03-20T03:36:04;98067.75;;;6.80;60.40
65756;BME280;52489;47.502;18.940;2023-03-20T03:37:40;98066.16;;;6.84;60.42
65756;BME280;52489;47.502;18.940;2023-03-20T03:39:24;98072.69;;;6.82;60.35
65756;BME280;52489;47.502;18.940;2023-03-20T03:40:40;98072.91;;;6.86;60.17
65756;BME280;52489;47.502;18.940;2023-03-20T03:41:52;98069.75;;;6.94;60.15
65756;BME280;52489;47.502;18.940;2023-03-20T03:43:07;98075.25;;;6.87;60.45
65756;BME280;52489;47.502;18.940;2023-03-20T03:44:22;98072.22;;;6.75;60.62
65756;BME280;52489;47.502;18.940;2023-03-20T03:45:35;98073.81;;;6.66;61.05
65756;BME280;52489;47.502;18.940;2023-03-20T03:47:36;98080.09;;;6.54;61.69
65756;BME280;52489;47.502;18.940;2023-03-20T03:48:23;98086.88;;;6.50;61.52
65756;BME280;52489;47.502;18.940;2023-03-20T03:49:32;98081.88;;;6.64;61.35
65756;BME280;52489;47.502;18.940;2023-03-20T03:50:41;98081.59;;;6.71;61.05
65756;BME280;52489;47.502;18.940;2023-03-20T03:51:56;98086.31;;;6.69;61.04
65756;BME280;52489;47.502;18.940;2023-03-20T03:53:09;98086.56;;;6.62;61.11
65756;BME280;52489;47.502;18.940;2023-03-20T03:54:28;98088.37;;;6.67;61.09
65756;BME280;52489;47.502;18.940;2023-03-20T03:55:36;98092.09;;;6.50;61.75
65756;BME280;52489;47.502;18.940;2023-03-20T03:56:42;98091.91;;;6.31;62.39
65756;BME280;52489;47.502;18.940;2023-03-20T03:57:59;98092.12;;;6.45;62.12
65756;BME280;52489;47.502;18.940;2023-03-20T03:59:12;98095.25;;;6.42;62.30
65756;BME280;52489;47.502;18.940;2023-03-20T04:00:19;98098.88;;;6.46;61.96
65756;BME280;52489;47.502;18.940;2023-03-20T04:01:26;98100.16;;;6.49;62.09
65756;BME280;52489;47.502;18.940;2023-03-20T04:02:31;98103.31;;;6.46;62.26
65756;BME280;52489;47.502;18.940;2023-03-20T04:03:56;98099.88;;;6.55;62.11
65756;BME280;52489;47.502;18.940;2023-03-20T04:05:01;98095.50;;;6.46;62.48
65756;BME280;52489;47.502;18.940;2023-03-20T04:06:09;98099.16;;;6.40;62.46
65756;BME280;52489;47.502;18.940;2023-03-20T04:07:14;98098.16;;;6.30;62.72
65756;BME280;52489;47.502;18.940;2023-03-20T04:08:17;98091.38;;;6.29;62.73
65756;BME280;52489;47.502;18.940;2023-03-20T04:09:20;98093.25;;;6.19;63.20
65756;BME280;52489;47.502;18.940;2023-03-20T04:10:23;98089.09;;;6.02;64.08
65756;BME280;52489;47.502;18.940;2023-03-20T04:11:26;98090.41;;;6.10;63.78
65756;BME280;52489;47.502;18.940;2023-03-20T04:12:38;98090.13;;;6.11;63.80
65756;BME280;52489;47.502;18.940;2023-03-20T04:13:41;98095.03;;;6.23;63.70
65756;BME280;52489;47.502;18.940;2023-03-20T04:14:44;98102.31;;;6.31;63.20
65756;BME280;52489;47.502;18.940;2023-03-20T04:15:47;98101.00;;;6.24;63.07
65756;BME280;52489;47.502;18.940;2023-03-20T04:16:50;98107.75;;;6.35;62.79
65756;BME280;52489;47.502;18.940;2023-03-20T04:17:53;98096.34;;;6.31;62.82
65756;BME280;52489;47.502;18.940;2023-03-20T04:18:56;98102.59;;;6.20;63.08
65756;BME280;52489;47.502;18.940;2023-03-20T04:19:59;98100.53;;;6.17;63.43
65756;BME280;52489;47.502;18.940;2023-03-20T04:21:02;98107.31;;;6.12;63.62
65756;BME280;52489;47.502;18.940;2023-03-20T04:22:05;98097.94;;;6.11;63.62
65756;BME280;52489;47.502;18.940;2023-03-20T04:23:08;98097.69;;;6.03;63.90
65756;BME280;52489;47.502;18.940;2023-03-20T04:24:11;98105.75;;;5.96;64.12
65756;BME280;52489;47.502;18.940;2023-03-20T04:25:17;98110.72;;;5.98;64.04
65756;BME280;52489;47.502;18.940;2023-03-20T04:26:20;98101.06;;;6.03;63.90
65756;BME280;52489;47.502;18.940;2023-03-20T04:27:23;98108.38;;;6.06;64.00
65756;BME280;52489;47.502;18.940;2023-03-20T04:28:27;98109.66;;;6.04;64.20
65756;BME280;52489;47.502;18.940;2023-03-20T04:29:30;98109.91;;;6.07;64.12
65756;BME280;52489;47.502;18.940;2023-03-20T04:30:33;98105.75;;;6.06;64.05
65756;BME280;52489;47.502;18.940;2023-03-20T04:31:36;98114.88;;;5.99;64.10
65756;BME280;52489;47.502;18.940;2023-03-20T04:32:40;98112.25;;;5.93;64.18
65756;BME280;52489;47.502;18.940;2023-03-20T04:33:43;98108.38;;;5.86;64.45
65756;BME280;52489;47.502;18.940;2023-03-20T04:34:46;98112.25;;;5.93;64.40
65756;BME280;52489;47.502;18.940;2023-03-20T04:35:49;98106.00;;;5.89;64.53
65756;BME280;52489;47.502;18.940;2023-03-20T04:36:52;98107.06;;;5.93;63.86
65756;BME280;52489;47.502;18.940;2023-03-20T04:37:55;98103.41;;;5.89;63.68
65756;BME280;52489;47.502;18.940;2023-03-20T04:38:58;98112.78;;;5.75;64.22
65756;BME280;52489;47.502;18.940;2023-03-20T04:40:01;98107.84;;;5.53;65.32
65756;BME280;52489;47.502;18.940;2023-03-20T04:41:05;98110.69;;;5.46;65.72
65756;BME280;52489;47.502;18.940;2023-03-20T04:42:08;98111.72;;;5.35;66.17
65756;BME280;52489;47.502;18.940;2023-03-20T04:43:12;98112.50;;;5.25;66.66
65756;BME280;52489;47.502;18.940;2023-03-20T04:44:15;98108.63;;;5.38;66.17
65756;BME280;52489;47.502;18.940;2023-03-20T04:45:18;98102.38;;;5.39;65.95
65756;BME280;52489;47.502;18.940;2023-03-20T04:46:22;98104.19;;;5.34;65.74
65756;BME280;52489;47.502;18.940;2023-03-20T04:47:25;98108.63;;;5.43;65.62
65756;BME280;52489;47.502;18.940;2023-03-20T04:48:28;98107.59;;;5.55;65.24
65756;BME280;52489;47.502;18.940;2023-03-20T04:49:31;98102.38;;;5.50;65.00
65756;BME280;52489;47.502;18.940;2023-03-20T04:50:35;98100.31;;;5.52;64.91
65756;BME280;52489;47.502;18.940;2023-03-20T04:51:37;98102.66;;;5.53;64.92
65756;BME280;52489;47.502;18.940;2023-03-20T04:52:40;98101.84;;;5.53;64.91
65756;BME280;52489;47.502;18.940;2023-03-20T04:53:43;98103.19;;;5.45;64.86
65756;BME280;52489;47.502;18.940;2023-03-20T04:54:46;98107.06;;;5.42;64.82
65756;BME280;52489;47.502;18.940;2023-03-20T04:55:49;98104.72;;;5.36;65.07
65756;BME280;52489;47.502;18.940;2023-03-20T04:56:52;98108.09;;;5.46;65.24
65756;BME280;52489;47.502;18.940;2023-03-20T04:57:55;98103.16;;;5.50;64.91
65756;BME280;52489;47.502;18.940;2023-03-20T04:58:58;98101.34;;;5.56;64.91
65756;BME280;52489;47.502;18.940;2023-03-20T05:00:03;98102.66;;;5.58;65.10
65756;BME280;52489;47.502;18.940;2023-03-20T05:01:06;98102.41;;;5.60;64.67
65756;BME280;52489;47.502;18.940;2023-03-20T05:02:09;98098.75;;;5.45;64.71
65756;BME280;52489;47.502;18.940;2023-03-20T05:03:16;98099.00;;;5.49;65.13
65756;BME280;52489;47.502;18.940;2023-03-20T05:04:19;98106.78;;;5.44;64.80
65756;BME280;52489;47.502;18.940;2023-03-20T05:05:23;98108.38;;;5.60;64.96
65756;BME280;52489;47.502;18.940;2023-03-20T05:06:27;98100.56;;;5.65;64.80
65756;BME280;52489;47.502;18.940;2023-03-20T05:07:29;98108.34;;;5.76;64.27
65756;BME280;52489;47.502;18.940;2023-03-20T05:08:34;98106.56;;;5.66;64.16
65756;BME280;52489;47.502;18.940;2023-03-20T05:09:37;98105.50;;;5.72;64.32
65756;BME280;52489;47.502;18.940;2023-03-20T05:10:40;98107.06;;;5.63;64.61
65756;BME280;52489;47.502;18.940;2023-03-20T05:11:43;98109.94;;;5.56;64.72
65756;BME280;52489;47.502;18.940;2023-03-20T05:12:46;98105.00;;;5.60;64.76
65756;BME280;52489;47.502;18.940;2023-03-20T05:13:49;98108.09;;;5.62;64.77
65756;BME280;52489;47.502;18.940;2023-03-20T05:14:52;98110.44;;;5.68;64.21
65756;BME280;52489;47.502;18.940;2023-03-20T05:15:56;98112.78;;;5.75;64.14
65756;BME280;52489;47.502;18.940;2023-03-20T05:16:59;98113.81;;;5.79;63.84
65756;BME280;52489;47.502;18.940;2023-03-20T05:18:13;98106.81;;;5.75;63.92
65756;BME280;52489;47.502;18.940;2023-03-20T05:19:16;98116.69;;;5.73;64.17
65756;BME280;52489;47.502;18.940;2023-03-20T05:20:19;98114.06;;;5.73;64.63
65756;BME280;52489;47.502;18.940;2023-03-20T05:21:22;98117.97;;;5.70;64.63
65756;BME280;52489;47.502;18.940;2023-03-20T05:22:25;98122.66;;;5.73;64.41
65756;BME280;52489;47.502;18.940;2023-03-20T05:23:28;98116.44;;;5.74;63.73
65756;BME280;52489;47.502;18.940;2023-03-20T05:24:31;98120.59;;;5.80;63.08
65756;BME280;52489;47.502;18.940;2023-03-20T05:25:34;98120.84;;;5.84;62.89
65756;BME280;52489;47.502;18.940;2023-03-20T05:26:38;98119.25;;;5.88;63.32
65756;BME280;52489;47.502;18.940;2023-03-20T05:27:43;98118.72;;;5.91;62.79
65756;BME280;52489;47.502;18.940;2023-03-20T05:28:47;98120.31;;;5.97;62.60
65756;BME280;52489;47.502;18.940;2023-03-20T05:29:49;98123.69;;;6.03;62.81
65756;BME280;52489;47.502;18.940;2023-03-20T05:30:53;98120.84;;;6.09;62.75
65756;BME280;52489;47.502;18.940;2023-03-20T05:31:56;98123.69;;;6.13;62.30
65756;BME280;52489;47.502;18.940;2023-03-20T05:32:59;98111.47;;;6.19;61.47
65756;BME280;52489;47.502;18.940;2023-03-20T05:34:02;98125.47;;;6.23;61.67
65756;BME280;52489;47.502;18.940;2023-03-20T05:35:05;98121.34;;;6.11;63.29
65756;BME280;52489;47.502;18.940;2023-03-20T05:36:09;98122.09;;;6.27;62.50
65756;BME280;52489;47.502;18.940;2023-03-20T05:37:12;98120.03;;;6.24;62.20
65756;BME280;52489;47.502;18.940;2023-03-20T05:38:15;98118.69;;;6.32;62.32
65756;BME280;52489;47.502;18.940;2023-03-20T05:39:18;98121.00;;;6.38;62.12
65756;BME280;52489;47.502;18.940;2023-03-20T05:40:22;98124.66;;;6.43;61.96
65756;BME280;52489;47.502;18.940;2023-03-20T05:41:27;98125.94;;;6.45;62.40
65756;BME280;52489;47.502;18.940;2023-03-20T05:42:30;98122.28;;;6.46;61.94
65756;BME280;52489;47.502;18.940;2023-03-20T05:43:33;98129.84;;;6.48;62.09
65756;BME280;52489;47.502;18.940;2023-03-20T05:44:36;98128.25;;;6.52;61.62
65756;BME280;52489;47.502;18.940;2023-03-20T05:45:41;98129.56;;;6.54;61.89
65756;BME280;52489;47.502;18.940;2023-03-20T05:46:44;98130.81;;;6.62;61.92
65756;BME280;52489;47.502;18.940;2023-03-20T05:47:47;98132.31;;;6.78;61.41
65756;BME280;52489;47.502;18.940;2023-03-20T05:48:50;98129.50;;;6.70;60.88
65756;BME280;52489;47.502;18.940;2023-03-20T05:49:53;98131.88;;;6.61;61.38
65756;BME280;52489;47.502;18.940;2023-03-20T05:50:56;98125.41;;;6.48;62.66
65756;BME280;52489;47.502;18.940;2023-03-20T05:51:59;98129.31;;;6.51;62.22
65756;BME280;52489;47.502;18.940;2023-03-20T05:53:02;98139.69;;;6.56;61.23
65756;BME280;52489;47.502;18.940;2023-03-20T05:54:05;98134.72;;;6.59;60.81
65756;BME280;52489;47.502;18.940;2023-03-20T05:55:08;98134.41;;;6.71;60.94
65756;BME280;52489;47.502;18.940;2023-03-20T05:56:11;98142.75;;;6.78;60.28
65756;BME280;52489;47.502;18.940;2023-03-20T05:57:14;98129.72;;;6.83;59.81
65756;BME280;52489;47.502;18.940;2023-03-20T05:58:17;98140.87;;;6.89;59.04
65756;BME280;52489;47.502;18.940;2023-03-20T05:59:20;98129.78;;;7.13;57.62
65756;BME280;52489;47.502;18.940;2023-03-20T06:00:23;98144.09;;;7.15;57.40
65756;BME280;52489;47.502;18.940;2023-03-20T06:01:27;98139.94;;;7.19;57.71
65756;BME280;52489;47.502;18.940;2023-03-20T06:02:29;98142.25;;;7.21;56.90
65756;BME280;52489;47.502;18.940;2023-03-20T06:03:32;98151.09;;;7.25;56.57
65756;BME280;52489;47.502;18.940;2023-03-20T06:04:35;98154.97;;;7.27;56.96
65756;BME280;52489;47.502;18.940;2023-03-20T06:05:38;98153.62;;;7.35;56.84
65756;BME280;52489;47.502;18.940;2023-03-20T06:06:42;98155.56;;;7.59;55.66
65756;BME280;52489;47.502;18.940;2023-03-20T06:07:45;98156.09;;;7.56;56.27
65756;BME280;52489;47.502;18.940;2023-03-20T06:08:48;98152.72;;;7.55;56.16
65756;BME280;52489;47.502;18.940;2023-03-20T06:09:51;98165.22;;;7.58;55.94
65756;BME280;52489;47.502;18.940;2023-03-20T06:10:53;98161.75;;;7.68;56.11
65756;BME280;52489;47.502;18.940;2023-03-20T06:11:56;98161.22;;;7.71;56.26
65756;BME280;52489;47.502;18.940;2023-03-20T06:13:00;98165.63;;;7.75;55.55
65756;BME280;52489;47.502;18.940;2023-03-20T06:14:03;98163.97;;;7.85;56.16
65756;BME280;52489;47.502;18.940;2023-03-20T06:15:06;98166.25;;;7.91;56.04
65756;BME280;52489;47.502;18.940;2023-03-20T06:16:09;98162.56;;;7.97;55.90
65756;BME280;52489;47.502;18.940;2023-03-20T06:17:12;98160.16;;;8.01;55.74
65756;BME280;52489;47.502;18.940;2023-03-20T06:18:15;98156.47;;;8.07;54.90
65756;BME280;52489;47.502;18.940;2023-03-20T06:19:19;98162.72;;;8.11;55.51
65756;BME280;52489;47.502;18.940;2023-03-20T06:20:24;98154.59;;;8.13;55.38
65756;BME280;52489;47.502;18.940;2023-03-20T06:21:27;98163.91;;;8.19;54.61
65756;BME280;52489;47.502;18.940;2023-03-20T06:22:30;98161.06;;;8.20;53.76
65756;BME280;52489;47.502;18.940;2023-03-20T06:23:33;98159.41;;;8.30;53.93
65756;BME280;52489;47.502;18.940;2023-03-20T06:24:37;98161.38;;;8.43;54.37